sensor_id;sensor_type;location;lat;lon;timestamp;pressure;altitude;pressure_sealevel;temperature;humidity
28683;BME280;15862;43.062;25.626;2023-01-27T00:00:10;99543.66;;;1.76;100.00
28683;BME280;15862;43.062;25.626;2023-01-27T00:02:36;99552.84;;;1.80;100.00
28683;BME280;15862;43.062;25.626;2023-01-27T00:05:01;99545.25;;;1.78;100.00
28683;BME280;15862;43.062;25.626;2023-01-27T00:07:27;99540.50;;;1.71;100.00
28683;BME280;15862;43.062;25.626;2023-01-27T00:09:52;99548.75;;;1.76;100.00
28683;BME280;15862;43.062;25.626;2023-01-27T00:12:20;99544.34;;;1.79;100.00
28683;BME280;15862;43.062;25.626;2023-01-27T00:15:04;99548.63;;;1.79;100.00
28683;BME280;15862;43.062;25.626;2023-01-27T00:17:30;99541.00;;;1.79;100.00
28683;BME280;15862;43.062;25.626;2023-01-27T00:19:56;99536.03;;;1.76;100.00
28683;BME280;15862;43.062;25.626;2023-01-27T00:22:22;99511.94;;;1.64;100.00
28683;BME280;15862;43.062;25.626;2023-01-27T00:25:06;99536.00;;;1.77;100.00
28683;BME280;15862;43.062;25.626;2023-01-27T00:27:32;99539.22;;;1.81;100.00
28683;BME280;15862;43.062;25.626;2023-01-27T00:29:57;99543.63;;;1.77;100.00
28683;BME280;15862;43.062;25.626;2023-01-27T00:32:23;99529.94;;;1.80;100.00
28683;BME280;15862;43.062;25.626;2023-01-27T00:35:07;99534.44;;;1.73;100.00
28683;BME280;15862;43.062;25.626;2023-01-27T00:37:32;99538.19;;;1.85;100.00
28683;BME280;15862;43.062;25.626;2023-01-27T00:39:58;99548.13;;;1.71;100.00
28683;BME280;15862;43.062;25.626;2023-01-27T00:42:23;99535.69;;;1.65;100.00
28683;BME280;15862;43.062;25.626;2023-01-27T00:44:49;99539.94;;;1.64;100.00
28683;BME280;15862;43.062;25.626;2023-01-27T00:47:33;99549.31;;;1.64;100.00
28683;BME280;15862;43.062;25.626;2023-01-27T00:49:58;99551.78;;;1.65;100.00
28683;BME280;15862;43.062;25.626;2023-01-27T00:52:24;99563.97;;;1.59;100.00
28683;BME280;15862;43.062;25.626;2023-01-27T00:54:49;99583.66;;;1.54;100.00
28683;BME280;15862;43.062;25.626;2023-01-27T00:57:15;99600.16;;;1.46;100.00
28683;BME280;15862;43.062;25.626;2023-01-27T00:59:40;99577.88;;;1.50;100.00
28683;BME280;15862;43.062;25.626;2023-01-27T01:02:05;99579.41;;;1.54;100.00
28683;BME280;15862;43.062;25.626;2023-01-27T01:04:31;99588.63;;;1.57;100.00
28683;BME280;15862;43.062;25.626;2023-01-27T01:06:56;99560.13;;;1.49;100.00
28683;BME280;15862;43.062;25.626;2023-01-27T01:09:21;99577.28;;;1.64;100.00
28683;BME280;15862;43.062;25.626;2023-01-27T01:11:47;99578.06;;;1.66;100.00
28683;BME280;15862;43.062;25.626;2023-01-27T01:14:12;99560.19;;;1.67;100.00
28683;BME280;15862;43.062;25.626;2023-01-27T01:16:38;99556.75;;;1.68;100.00
28683;BME280;15862;43.062;25.626;2023-01-27T01:19:03;99512.56;;;1.51;100.00
28683;BME280;15862;43.062;25.626;2023-01-27T01:21:28;99535.53;;;1.68;100.00
28683;BME280;15862;43.062;25.626;2023-01-27T01:23:54;99529.75;;;1.64;100.00
28683;BME280;15862;43.062;25.626;2023-01-27T01:26:19;99512.28;;;1.57;100.00
28683;BME280;15862;43.062;25.626;2023-01-27T01:28:45;99532.50;;;1.60;100.00
28683;BME280;15862;43.062;25.626;2023-01-27T01:31:13;99513.78;;;1.61;100.00
28683;BME280;15862;43.062;25.626;2023-01-27T01:33:39;99512.88;;;1.63;100.00
28683;BME280;15862;43.062;25.626;2023-01-27T01:36:06;99505.28;;;1.62;100.00
28683;BME280;15862;43.062;25.626;2023-01-27T01:38:33;99503.50;;;1.64;100.00
28683;BME280;15862;43.062;25.626;2023-01-27T01:40:59;99480.72;;;1.61;100.00
28683;BME280;15862;43.062;25.626;2023-01-27T01:43:24;99483.75;;;1.69;100.00
28683;BME280;15862;43.062;25.626;2023-01-27T01:45:56;99510.03;;;1.69;100.00
28683;BME280;15862;43.062;25.626;2023-01-27T01:48:37;99498.28;;;1.49;100.00
28683;BME280;15862;43.062;25.626;2023-01-27T01:56:17;99512.59;;;1.69;100.00
28683;BME280;15862;43.062;25.626;2023-01-27T01:58:46;99515.94;;;1.70;100.00
28683;BME280;15862;43.062;25.626;2023-01-27T02:01:13;99513.28;;;1.73;100.00
28683;BME280;15862;43.062;25.626;2023-01-27T02:03:41;99509.69;;;1.77;100.00
28683;BME280;15862;43.062;25.626;2023-01-27T02:06:09;99512.38;;;1.74;100.00
28683;BME280;15862;43.062;25.626;2023-01-27T02:08:40;99497.44;;;1.66;100.00
28683;BME280;15862;43.062;25.626;2023-01-27T02:11:07;99519.75;;;1.80;100.00
28683;BME280;15862;43.062;25.626;2023-01-27T02:13:33;99511.91;;;1.84;100.00
28683;BME280;15862;43.062;25.626;2023-01-27T02:15:58;99505.09;;;1.85;100.00
28683;BME280;15862;43.062;25.626;2023-01-27T02:18:25;99481.28;;;1.86;100.00
28683;BME280;15862;43.062;25.626;2023-01-27T02:20:52;99455.34;;;1.78;100.00
28683;BME280;15862;43.062;25.626;2023-01-27T02:26:28;99471.03;;;1.87;100.00
28683;BME280;15862;43.062;25.626;2023-01-27T02:29:01;99447.38;;;1.85;100.00
28683;BME280;15862;43.062;25.626;2023-01-27T02:31:27;99436.56;;;1.80;100.00
28683;BME280;15862;43.062;25.626;2023-01-27T02:33:57;99450.25;;;1.78;100.00
28683;BME280;15862;43.062;25.626;2023-01-27T02:36:25;99429.59;;;1.84;100.00
28683;BME280;15862;43.062;25.626;2023-01-27T02:38:52;99427.91;;;1.84;100.00
28683;BME280;15862;43.062;25.626;2023-01-27T02:41:43;99436.47;;;1.82;100.00
28683;BME280;15862;43.062;25.626;2023-01-27T02:44:10;99442.22;;;1.68;100.00
28683;BME280;15862;43.062;25.626;2023-01-27T02:46:36;99470.41;;;1.64;100.00
28683;BME280;15862;43.062;25.626;2023-01-27T02:49:02;99472.16;;;1.63;100.00
28683;BME280;15862;43.062;25.626;2023-01-27T02:51:28;99482.09;;;1.68;100.00
28683;BME280;15862;43.062;25.626;2023-01-27T02:53:53;99463.53;;;1.66;100.00
28683;BME280;15862;43.062;25.626;2023-01-27T02:56:19;99466.41;;;1.77;100.00
28683;BME280;15862;43.062;25.626;2023-01-27T02:58:44;99452.03;;;1.76;100.00
28683;BME280;15862;43.062;25.626;2023-01-27T03:01:10;99463.75;;;1.80;100.00
28683;BME280;15862;43.062;25.626;2023-01-27T03:03:35;99470.50;;;1.81;100.00
28683;BME280;15862;43.062;25.626;2023-01-27T03:06:08;99445.28;;;1.75;100.00
28683;BME280;15862;43.062;25.626;2023-01-27T03:08:33;99465.31;;;1.82;100.00
28683;BME280;15862;43.062;25.626;2023-01-27T03:10:58;99477.91;;;1.85;100.00
28683;BME280;15862;43.062;25.626;2023-01-27T03:13:25;99480.38;;;1.87;100.00
28683;BME280;15862;43.062;25.626;2023-01-27T03:15:52;99479.50;;;1.88;100.00
28683;BME280;15862;43.062;25.626;2023-01-27T03:18:37;99472.53;;;1.91;100.00
28683;BME280;15862;43.062;25.626;2023-01-27T03:21:05;99479.13;;;1.95;100.00
28683;BME280;15862;43.062;25.626;2023-01-27T03:23:31;99464.28;;;1.86;100.00
28683;BME280;15862;43.062;25.626;2023-01-27T03:26:01;99490.91;;;1.98;100.00
28683;BME280;15862;43.062;25.626;2023-01-27T03:28:26;99483.34;;;1.96;100.00
28683;BME280;15862;43.062;25.626;2023-01-27T03:31:06;99478.84;;;2.01;100.00
28683;BME280;15862;43.062;25.626;2023-01-27T03:33:32;99454.94;;;1.87;100.00
28683;BME280;15862;43.062;25.626;2023-01-27T03:36:00;99471.38;;;1.98;100.00
28683;BME280;15862;43.062;25.626;2023-01-27T03:38:44;99473.75;;;2.01;100.00
28683;BME280;15862;43.062;25.626;2023-01-27T03:41:28;99475.31;;;2.04;100.00
28683;BME280;15862;43.062;25.626;2023-01-27T03:44:12;99465.69;;;2.10;100.00
28683;BME280;15862;43.062;25.626;2023-01-27T03:46:56;99464.31;;;2.03;100.00
28683;BME280;15862;43.062;25.626;2023-01-27T03:49:22;99467.44;;;1.91;100.00
28683;BME280;15862;43.062;25.626;2023-01-27T03:51:47;99471.41;;;1.97;100.00
28683;BME280;15862;43.062;25.626;2023-01-27T03:54:13;99484.78;;;2.02;100.00
28683;BME280;15862;43.062;25.626;2023-01-27T03:56:38;99490.84;;;1.99;100.00
28683;BME280;15862;43.062;25.626;2023-01-27T03:59:04;99479.97;;;1.96;100.00
28683;BME280;15862;43.062;25.626;2023-01-27T04:01:29;99473.34;;;1.92;100.00
28683;BME280;15862;43.062;25.626;2023-01-27T04:03:54;99472.34;;;1.96;100.00
28683;BME280;15862;43.062;25.626;2023-01-27T04:06:38;99455.44;;;1.93;100.00
28683;BME280;15862;43.062;25.626;2023-01-27T04:09:29;99440.41;;;1.89;100.00
28683;BME280;15862;43.062;25.626;2023-01-27T04:11:56;99434.56;;;1.87;100.00
28683;BME280;15862;43.062;25.626;2023-01-27T04:14:29;99437.50;;;1.96;100.00
28683;BME280;15862;43.062;25.626;2023-01-27T04:16:58;99446.63;;;2.00;100.00
28683;BME280;15862;43.062;25.626;2023-01-27T04:19:24;99453.59;;;1.97;100.00
28683;BME280;15862;43.062;25.626;2023-01-27T04:21:50;99460.31;;;1.81;100.00
28683;BME280;15862;43.062;25.626;2023-01-27T04:24:16;99454.09;;;1.68;100.00
28683;BME280;15862;43.062;25.626;2023-01-27T04:26:48;99457.00;;;1.79;100.00
28683;BME280;15862;43.062;25.626;2023-01-27T04:29:14;99461.00;;;1.84;100.00
28683;BME280;15862;43.062;25.626;2023-01-27T04:31:40;99450.94;;;1.81;100.00
28683;BME280;15862;43.062;25.626;2023-01-27T04:34:06;99474.72;;;1.99;100.00
28683;BME280;15862;43.062;25.626;2023-01-27T04:36:32;99464.16;;;1.89;100.00
28683;BME280;15862;43.062;25.626;2023-01-27T04:38:58;99484.78;;;2.02;100.00
28683;BME280;15862;43.062;25.626;2023-01-27T04:41:23;99484.56;;;2.06;100.00
28683;BME280;15862;43.062;25.626;2023-01-27T04:43:49;99482.63;;;2.11;100.00
28683;BME280;15862;43.062;25.626;2023-01-27T04:46:14;99479.09;;;2.14;100.00
28683;BME280;15862;43.062;25.626;2023-01-27T04:48:40;99483.66;;;2.07;100.00
28683;BME280;15862;43.062;25.626;2023-01-27T04:51:05;99473.34;;;2.10;100.00
28683;BME280;15862;43.062;25.626;2023-01-27T04:53:30;99466.47;;;2.12;100.00
28683;BME280;15862;43.062;25.626;2023-01-27T04:56:11;99459.72;;;2.11;100.00
28683;BME280;15862;43.062;25.626;2023-01-27T04:58:39;99468.03;;;2.15;100.00
28683;BME280;15862;43.062;25.626;2023-01-27T05:01:04;99473.00;;;2.18;100.00
28683;BME280;15862;43.062;25.626;2023-01-27T05:03:29;99477.47;;;2.13;100.00
28683;BME280;15862;43.062;25.626;2023-01-27T05:05:55;99468.78;;;2.17;100.00
28683;BME280;15862;43.062;25.626;2023-01-27T05:08:20;99446.22;;;2.09;100.00
28683;BME280;15862;43.062;25.626;2023-01-27T05:10:46;99442.25;;;2.21;100.00
28683;BME280;15862;43.062;25.626;2023-01-27T05:13:12;99424.44;;;2.21;100.00
28683;BME280;15862;43.062;25.626;2023-01-27T05:15:37;99435.47;;;2.21;100.00
28683;BME280;15862;43.062;25.626;2023-01-27T05:18:03;99437.09;;;2.22;100.00
28683;BME280;15862;43.062;25.626;2023-01-27T05:20:28;99428.72;;;2.20;100.00
28683;BME280;15862;43.062;25.626;2023-01-27T05:22:55;99452.16;;;2.26;100.00
28683;BME280;15862;43.062;25.626;2023-01-27T05:25:44;99443.31;;;2.17;100.00
28683;BME280;15862;43.062;25.626;2023-01-27T05:28:10;99454.41;;;2.16;100.00
28683;BME280;15862;43.062;25.626;2023-01-27T05:30:35;99445.91;;;2.15;100.00
28683;BME280;15862;43.062;25.626;2023-01-27T05:33:01;99438.34;;;2.14;100.00
28683;BME280;15862;43.062;25.626;2023-01-27T05:35:26;99400.13;;;1.97;100.00
28683;BME280;15862;43.062;25.626;2023-01-27T05:37:52;99422.09;;;2.16;100.00
28683;BME280;15862;43.062;25.626;2023-01-27T05:40:17;99416.75;;;2.04;100.00
28683;BME280;15862;43.062;25.626;2023-01-27T05:42:43;99448.19;;;2.21;100.00
28683;BME280;15862;43.062;25.626;2023-01-27T05:45:08;99450.13;;;2.16;100.00
28683;BME280;15862;43.062;25.626;2023-01-27T05:47:34;99445.81;;;2.00;100.00
28683;BME280;15862;43.062;25.626;2023-01-27T05:49:59;99464.13;;;2.08;100.00
28683;BME280;15862;43.062;25.626;2023-01-27T05:52:24;99470.88;;;2.09;100.00
28683;BME280;15862;43.062;25.626;2023-01-27T05:54:50;99460.69;;;2.09;100.00
28683;BME280;15862;43.062;25.626;2023-01-27T05:57:15;99455.28;;;2.15;100.00
28683;BME280;15862;43.062;25.626;2023-01-27T05:59:41;99442.09;;;2.07;100.00
28683;BME280;15862;43.062;25.626;2023-01-27T06:02:06;99477.78;;;2.24;100.00
28683;BME280;15862;43.062;25.626;2023-01-27T06:04:31;99478.41;;;2.28;100.00
28683;BME280;15862;43.062;25.626;2023-01-27T06:06:57;99465.19;;;2.21;100.00
28683;BME280;15862;43.062;25.626;2023-01-27T06:09:22;99490.25;;;2.29;100.00
28683;BME280;15862;43.062;25.626;2023-01-27T06:11:47;99493.47;;;2.33;100.00
28683;BME280;15862;43.062;25.626;2023-01-27T06:14:13;99496.56;;;2.39;100.00
28683;BME280;15862;43.062;25.626;2023-01-27T06:16:39;99478.56;;;2.42;100.00
28683;BME280;15862;43.062;25.626;2023-01-27T06:19:04;99468.88;;;2.32;100.00
28683;BME280;15862;43.062;25.626;2023-01-27T06:21:29;99493.78;;;2.44;100.00
28683;BME280;15862;43.062;25.626;2023-01-27T06:23:55;99482.84;;;2.42;100.00
28683;BME280;15862;43.062;25.626;2023-01-27T06:26:22;99486.81;;;2.47;100.00
28683;BME280;15862;43.062;25.626;2023-01-27T06:28:47;99479.16;;;2.47;100.00
28683;BME280;15862;43.062;25.626;2023-01-27T06:31:15;99468.84;;;2.50;100.00
28683;BME280;15862;43.062;25.626;2023-01-27T06:33:41;99454.31;;;2.52;100.00
28683;BME280;15862;43.062;25.626;2023-01-27T06:36:09;99451.44;;;2.58;100.00
28683;BME280;15862;43.062;25.626;2023-01-27T06:38:35;99453.91;;;2.60;100.00
28683;BME280;15862;43.062;25.626;2023-01-27T06:41:00;99462.31;;;2.62;100.00
28683;BME280;15862;43.062;25.626;2023-01-27T06:43:26;99468.69;;;2.70;100.00
28683;BME280;15862;43.062;25.626;2023-01-27T06:45:52;99479.72;;;2.71;100.00
28683;BME280;15862;43.062;25.626;2023-01-27T06:48:18;99489.28;;;2.66;100.00
28683;BME280;15862;43.062;25.626;2023-01-27T06:50:43;99487.88;;;2.60;100.00
28683;BME280;15862;43.062;25.626;2023-01-27T06:53:09;99491.94;;;2.64;100.00
28683;BME280;15862;43.062;25.626;2023-01-27T06:55:35;99482.34;;;2.52;100.00
28683;BME280;15862;43.062;25.626;2023-01-27T06:58:06;99491.25;;;2.61;100.00
28683;BME280;15862;43.062;25.626;2023-01-27T07:00:33;99498.53;;;2.68;100.00
28683;BME280;15862;43.062;25.626;2023-01-27T07:02:58;99486.53;;;2.70;100.00
28683;BME280;15862;43.062;25.626;2023-01-27T07:05:24;99499.72;;;2.78;100.00
28683;BME280;15862;43.062;25.626;2023-01-27T07:07:49;99497.41;;;2.74;100.00
28683;BME280;15862;43.062;25.626;2023-01-27T07:10:15;99494.56;;;2.80;100.00
28683;BME280;15862;43.062;25.626;2023-01-27T07:12:40;99492.41;;;2.89;100.00
28683;BME280;15862;43.062;25.626;2023-01-27T07:15:08;99485.88;;;2.84;100.00
28683;BME280;15862;43.062;25.626;2023-01-27T07:17:34;99507.91;;;3.02;100.00
28683;BME280;15862;43.062;25.626;2023-01-27T07:20:00;99500.78;;;3.08;100.00
28683;BME280;15862;43.062;25.626;2023-01-27T07:22:25;99500.00;;;3.06;100.00
28683;BME280;15862;43.062;25.626;2023-01-27T07:24:51;99510.75;;;3.12;100.00
28683;BME280;15862;43.062;25.626;2023-01-27T07:27:16;99512.09;;;3.19;100.00
28683;BME280;15862;43.062;25.626;2023-01-27T07:29:42;99502.56;;;3.23;100.00
28683;BME280;15862;43.062;25.626;2023-01-27T07:32:08;99512.44;;;3.29;100.00
28683;BME280;15862;43.062;25.626;2023-01-27T07:34:33;99514.94;;;3.30;100.00
28683;BME280;15862;43.062;25.626;2023-01-27T07:36:59;99517.41;;;3.32;100.00
28683;BME280;15862;43.062;25.626;2023-01-27T07:39:24;99507.19;;;3.32;100.00
28683;BME280;15862;43.062;25.626;2023-01-27T07:41:51;99506.97;;;3.36;100.00
28683;BME280;15862;43.062;25.626;2023-01-27T07:44:17;99520.09;;;3.46;100.00
28683;BME280;15862;43.062;25.626;2023-01-27T07:46:42;99529.22;;;3.50;100.00
28683;BME280;15862;43.062;25.626;2023-01-27T07:49:08;99510.31;;;3.54;100.00
28683;BME280;15862;43.062;25.626;2023-01-27T07:51:34;99514.34;;;3.58;100.00
28683;BME280;15862;43.062;25.626;2023-01-27T07:54:00;99502.00;;;3.66;100.00
28683;BME280;15862;43.062;25.626;2023-01-27T07:56:26;99485.03;;;3.65;100.00
28683;BME280;15862;43.062;25.626;2023-01-27T07:58:52;99472.59;;;3.59;100.00
28683;BME280;15862;43.062;25.626;2023-01-27T08:01:18;99473.00;;;3.67;100.00
28683;BME280;15862;43.062;25.626;2023-01-27T08:03:43;99478.63;;;3.73;100.00
28683;BME280;15862;43.062;25.626;2023-01-27T08:06:10;99473.94;;;3.81;100.00
28683;BME280;15862;43.062;25.626;2023-01-27T08:08:36;99452.59;;;3.82;100.00
28683;BME280;15862;43.062;25.626;2023-01-27T08:11:04;99442.69;;;3.76;100.00
28683;BME280;15862;43.062;25.626;2023-01-27T08:13:30;99456.16;;;3.95;100.00
28683;BME280;15862;43.062;25.626;2023-01-27T08:16:00;99445.19;;;3.93;100.00
28683;BME280;15862;43.062;25.626;2023-01-27T08:18:27;99441.22;;;3.87;100.00
28683;BME280;15862;43.062;25.626;2023-01-27T08:20:53;99442.06;;;3.88;100.00
28683;BME280;15862;43.062;25.626;2023-01-27T08:23:20;99442.84;;;4.04;100.00
28683;BME280;15862;43.062;25.626;2023-01-27T08:25:52;99420.63;;;3.90;100.00
28683;BME280;15862;43.062;25.626;2023-01-27T08:28:20;99412.91;;;3.77;100.00
28683;BME280;15862;43.062;25.626;2023-01-27T08:30:47;99416.50;;;3.88;100.00
28683;BME280;15862;43.062;25.626;2023-01-27T08:33:16;99427.63;;;3.87;100.00
28683;BME280;15862;43.062;25.626;2023-01-27T08:35:41;99422.94;;;3.79;100.00
28683;BME280;15862;43.062;25.626;2023-01-27T08:38:10;99434.63;;;3.83;100.00
28683;BME280;15862;43.062;25.626;2023-01-27T08:40:41;99427.44;;;3.90;100.00
28683;BME280;15862;43.062;25.626;2023-01-27T08:43:07;99433.56;;;3.87;100.00
28683;BME280;15862;43.062;25.626;2023-01-27T08:45:33;99425.31;;;3.82;100.00
28683;BME280;15862;43.062;25.626;2023-01-27T08:47:59;99427.53;;;3.88;100.00
28683;BME280;15862;43.062;25.626;2023-01-27T08:50:25;99430.00;;;3.90;100.00
28683;BME280;15862;43.062;25.626;2023-01-27T08:52:50;99432.91;;;3.99;100.00
28683;BME280;15862;43.062;25.626;2023-01-27T08:55:16;99419.13;;;3.86;100.00
28683;BME280;15862;43.062;25.626;2023-01-27T08:57:41;99427.69;;;3.85;100.00
28683;BME280;15862;43.062;25.626;2023-01-27T09:00:09;99419.13;;;3.86;100.00
28683;BME280;15862;43.062;25.626;2023-01-27T09:02:36;99413.78;;;3.76;100.00
28683;BME280;15862;43.062;25.626;2023-01-27T09:05:02;99405.38;;;3.89;100.00
28683;BME280;15862;43.062;25.626;2023-01-27T09:07:28;99406.34;;;3.86;100.00
28683;BME280;15862;43.062;25.626;2023-01-27T09:09:53;99397.03;;;3.85;100.00
28683;BME280;15862;43.062;25.626;2023-01-27T09:12:18;99413.03;;;3.89;100.00
28683;BME280;15862;43.062;25.626;2023-01-27T09:14:44;99406.34;;;3.86;100.00
28683;BME280;15862;43.062;25.626;2023-01-27T09:17:09;99415.69;;;4.03;100.00
28683;BME280;15862;43.062;25.626;2023-01-27T09:19:36;99395.94;;;4.05;100.00
28683;BME280;15862;43.062;25.626;2023-01-27T09:22:01;99391.19;;;3.99;100.00
28683;BME280;15862;43.062;25.626;2023-01-27T09:24:27;99393.44;;;3.89;100.00
28683;BME280;15862;43.062;25.626;2023-01-27T09:26:52;99386.53;;;3.91;100.00
28683;BME280;15862;43.062;25.626;2023-01-27T09:29:18;99387.63;;;4.01;100.00
28683;BME280;15862;43.062;25.626;2023-01-27T09:31:44;99389.28;;;4.02;100.00
28683;BME280;15862;43.062;25.626;2023-01-27T09:34:09;99364.44;;;3.90;100.00
28683;BME280;15862;43.062;25.626;2023-01-27T09:36:42;99391.09;;;4.00;100.00
28683;BME280;15862;43.062;25.626;2023-01-27T09:39:09;99400.34;;;4.03;100.00
28683;BME280;15862;43.062;25.626;2023-01-27T10:26:08;99360.03;;;3.48;100.00
28683;BME280;15862;43.062;25.626;2023-01-27T10:28:42;99354.50;;;3.40;100.00
28683;BME280;15862;43.062;25.626;2023-01-27T10:31:26;99347.19;;;3.34;100.00
28683;BME280;15862;43.062;25.626;2023-01-27T10:34:03;99345.44;;;3.50;100.00
28683;BME280;15862;43.062;25.626;2023-01-27T10:36:58;99330.09;;;3.50;100.00
28683;BME280;15862;43.062;25.626;2023-01-27T10:45:02;99325.16;;;3.78;100.00
28683;BME280;15862;43.062;25.626;2023-01-27T10:50:28;99321.31;;;3.71;100.00
28683;BME280;15862;43.062;25.626;2023-01-27T11:01:06;99298.13;;;3.74;100.00
28683;BME280;15862;43.062;25.626;2023-01-27T11:03:51;99297.44;;;3.85;100.00
28683;BME280;15862;43.062;25.626;2023-01-27T11:06:22;99306.34;;;3.94;100.00
28683;BME280;15862;43.062;25.626;2023-01-27T11:08:58;99278.91;;;3.82;100.00
28683;BME280;15862;43.062;25.626;2023-01-27T11:11:29;99297.13;;;3.91;100.00
28683;BME280;15862;43.062;25.626;2023-01-27T11:14:39;99293.31;;;3.98;100.00
28683;BME280;15862;43.062;25.626;2023-01-27T11:17:22;99274.13;;;3.91;100.00
28683;BME280;15862;43.062;25.626;2023-01-27T11:22:52;99270.59;;;4.08;100.00
28683;BME280;15862;43.062;25.626;2023-01-27T11:25:24;99254.16;;;3.98;100.00
28683;BME280;15862;43.062;25.626;2023-01-27T11:28:21;99262.75;;;4.11;100.00
28683;BME280;15862;43.062;25.626;2023-01-27T11:36:08;99270.97;;;4.02;100.00
28683;BME280;15862;43.062;25.626;2023-01-27T11:38:34;99269.56;;;3.96;100.00
28683;BME280;15862;43.062;25.626;2023-01-27T11:40:59;99272.31;;;4.07;100.00
28683;BME280;15862;43.062;25.626;2023-01-27T11:43:25;99276.88;;;4.02;100.00
28683;BME280;15862;43.062;25.626;2023-01-27T11:45:59;99278.13;;;3.95;100.00
28683;BME280;15862;43.062;25.626;2023-01-27T11:48:25;99277.72;;;4.03;100.00
28683;BME280;15862;43.062;25.626;2023-01-27T11:50:54;99270.00;;;3.89;100.00
28683;BME280;15862;43.062;25.626;2023-01-27T11:53:28;99297.16;;;4.05;100.00
28683;BME280;15862;43.062;25.626;2023-01-27T11:55:58;99284.19;;;4.08;100.00
28683;BME280;15862;43.062;25.626;2023-01-27T12:01:05;99282.34;;;3.96;100.00
28683;BME280;15862;43.062;25.626;2023-01-27T12:08:54;99290.41;;;4.04;100.00
28683;BME280;15862;43.062;25.626;2023-01-27T12:11:28;99292.75;;;4.07;100.00
28683;BME280;15862;43.062;25.626;2023-01-27T12:14:03;99291.31;;;4.03;100.00
28683;BME280;15862;43.062;25.626;2023-01-27T12:19:22;99294.25;;;4.11;100.00
28683;BME280;15862;43.062;25.626;2023-01-27T12:21:52;99295.00;;;4.13;100.00
28683;BME280;15862;43.062;25.626;2023-01-27T12:24:40;99290.59;;;4.15;100.00
28683;BME280;15862;43.062;25.626;2023-01-27T12:27:19;99272.38;;;3.92;100.00
28683;BME280;15862;43.062;25.626;2023-01-27T12:29:53;99294.38;;;3.94;100.00
28683;BME280;15862;43.062;25.626;2023-01-27T12:32:40;99292.69;;;3.79;100.00
28683;BME280;15862;43.062;25.626;2023-01-27T12:35:33;99293.13;;;3.72;100.00
28683;BME280;15862;43.062;25.626;2023-01-27T12:38:13;99304.44;;;3.82;100.00
28683;BME280;15862;43.062;25.626;2023-01-27T12:40:44;99307.25;;;3.93;100.00
28683;BME280;15862;43.062;25.626;2023-01-27T12:43:18;99301.25;;;4.08;100.00
28683;BME280;15862;43.062;25.626;2023-01-27T12:45:44;99306.81;;;4.14;100.00
28683;BME280;15862;43.062;25.626;2023-01-27T12:48:14;99301.06;;;4.11;100.00
28683;BME280;15862;43.062;25.626;2023-01-27T12:53:15;99295.16;;;4.24;100.00
28683;BME280;15862;43.062;25.626;2023-01-27T12:58:35;99293.25;;;4.28;100.00
28683;BME280;15862;43.062;25.626;2023-01-27T13:01:29;99283.69;;;4.31;100.00
28683;BME280;15862;43.062;25.626;2023-01-27T13:06:33;99281.38;;;4.27;100.00
28683;BME280;15862;43.062;25.626;2023-01-27T13:09:03;99273.81;;;4.25;100.00
28683;BME280;15862;43.062;25.626;2023-01-27T13:11:35;99285.34;;;4.32;100.00
28683;BME280;15862;43.062;25.626;2023-01-27T13:14:07;99291.09;;;4.36;100.00
28683;BME280;15862;43.062;25.626;2023-01-27T13:16:32;99283.53;;;4.34;100.00
28683;BME280;15862;43.062;25.626;2023-01-27T13:18:59;99289.72;;;4.44;100.00
28683;BME280;15862;43.062;25.626;2023-01-27T13:21:47;99286.97;;;4.33;100.00
28683;BME280;15862;43.062;25.626;2023-01-27T13:24:18;99283.31;;;4.23;100.00
28683;BME280;15862;43.062;25.626;2023-01-27T13:26:48;99269.06;;;4.19;100.00
28683;BME280;15862;43.062;25.626;2023-01-27T13:29:19;99279.31;;;4.33;100.00
28683;BME280;15862;43.062;25.626;2023-01-27T13:32:36;99292.09;;;4.33;100.00
28683;BME280;15862;43.062;25.626;2023-01-27T13:34:54;99276.75;;;4.19;100.00
28683;BME280;15862;43.062;25.626;2023-01-27T13:37:33;99299.53;;;4.22;100.00
28683;BME280;15862;43.062;25.626;2023-01-27T13:40:16;99299.63;;;4.07;100.00
28683;BME280;15862;43.062;25.626;2023-01-27T13:45:23;99311.25;;;3.97;100.00
28683;BME280;15862;43.062;25.626;2023-01-27T13:48:00;99308.16;;;3.92;100.00
28683;BME280;15862;43.062;25.626;2023-01-27T13:50:35;99315.19;;;3.73;100.00
28683;BME280;15862;43.062;25.626;2023-01-27T13:53:03;99296.84;;;3.67;100.00
28683;BME280;15862;43.062;25.626;2023-01-27T13:58:36;99314.19;;;3.76;100.00
28683;BME280;15862;43.062;25.626;2023-01-27T14:30:41;99325.97;;;2.86;100.00
28683;BME280;15862;43.062;25.626;2023-01-27T14:36:25;99351.53;;;2.84;100.00
28683;BME280;15862;43.062;25.626;2023-01-27T14:41:44;99358.56;;;2.96;100.00
28683;BME280;15862;43.062;25.626;2023-01-27T14:47:18;99357.66;;;2.97;100.00
28683;BME280;15862;43.062;25.626;2023-01-27T15:00:58;99371.25;;;3.13;100.00
28683;BME280;15862;43.062;25.626;2023-01-27T15:19:35;99392.09;;;2.89;100.00
28683;BME280;15862;43.062;25.626;2023-01-27T15:27:46;99396.66;;;2.99;100.00
28683;BME280;15862;43.062;25.626;2023-01-27T15:30:26;99385.56;;;3.00;100.00
28683;BME280;15862;43.062;25.626;2023-01-27T15:32:52;99375.09;;;2.89;100.00
28683;BME280;15862;43.062;25.626;2023-01-27T15:41:10;99373.00;;;2.80;100.00
28683;BME280;15862;43.062;25.626;2023-01-27T15:43:40;99368.28;;;2.73;100.00
28683;BME280;15862;43.062;25.626;2023-01-27T15:46:34;99378.06;;;2.65;100.00
28683;BME280;15862;43.062;25.626;2023-01-27T15:49:01;99386.22;;;2.71;100.00
28683;BME280;15862;43.062;25.626;2023-01-27T15:51:33;99392.72;;;2.77;100.00
28683;BME280;15862;43.062;25.626;2023-01-27T15:53:59;99402.34;;;2.72;100.00
28683;BME280;15862;43.062;25.626;2023-01-27T15:56:50;99403.47;;;2.66;100.00
28683;BME280;15862;43.062;25.626;2023-01-27T15:59:21;99408.47;;;2.68;100.00